sensor_id;sensor_type;location;lat;lon;timestamp;P1;durP1;ratioP1;P2;durP2;ratioP2
3767;SDS011;1899;49.966;7.106;2023-04-25T04:02:54;16.90;;;12.60;;
3767;SDS011;1899;49.966;7.106;2023-04-25T04:05:20;18.00;;;12.27;;
3767;SDS011;1899;49.966;7.106;2023-04-25T04:07:45;18.73;;;14.80;;
3767;SDS011;1899;49.966;7.106;2023-04-25T04:10:10;16.00;;;11.77;;
3767;SDS011;1899;49.966;7.106;2023-04-25T04:12:36;19.20;;;13.67;;
3767;SDS011;1899;49.966;7.106;2023-04-25T04:15:04;18.67;;;12.37;;
3767;SDS011;1899;49.966;7.106;2023-04-25T04:17:31;16.40;;;11.80;;
3767;SDS011;1899;49.966;7.106;2023-04-25T04:19:56;17.97;;;13.07;;
3767;SDS011;1899;49.966;7.106;2023-04-25T04:22:22;18.10;;;13.63;;
3767;SDS011;1899;49.966;7.106;2023-04-25T04:24:47;18.20;;;13.83;;
3767;SDS011;1899;49.966;7.106;2023-04-25T04:27:12;17.60;;;12.27;;
3767;SDS011;1899;49.966;7.106;2023-04-25T04:29:38;19.03;;;13.03;;
3767;SDS011;1899;49.966;7.106;2023-04-25T04:32:03;21.17;;;14.30;;
3767;SDS011;1899;49.966;7.106;2023-04-25T04:34:29;22.07;;;13.77;;
3767;SDS011;1899;49.966;7.106;2023-04-25T04:36:56;19.50;;;13.87;;
3767;SDS011;1899;49.966;7.106;2023-04-25T04:39:21;21.17;;;15.53;;
3767;SDS011;1899;49.966;7.106;2023-04-25T04:41:47;21.73;;;15.23;;
3767;SDS011;1899;49.966;7.106;2023-04-25T04:44:12;20.40;;;14.57;;
3767;SDS011;1899;49.966;7.106;2023-04-25T04:46:39;20.90;;;14.83;;
3767;SDS011;1899;49.966;7.106;2023-04-25T04:49:07;21.80;;;13.37;;
3767;SDS011;1899;49.966;7.106;2023-04-25T04:51:32;15.17;;;12.10;;
3767;SDS011;1899;49.966;7.106;2023-04-25T04:53:58;19.97;;;13.93;;
3767;SDS011;1899;49.966;7.106;2023-04-25T04:56:27;20.47;;;15.60;;
3767;SDS011;1899;49.966;7.106;2023-04-25T04:58:53;20.30;;;13.60;;
3767;SDS011;1899;49.966;7.106;2023-04-25T05:01:18;42.27;;;18.80;;
3767;SDS011;1899;49.966;7.106;2023-04-25T05:03:43;19.90;;;15.23;;
3767;SDS011;1899;49.966;7.106;2023-04-25T05:06:09;18.70;;;14.87;;
3767;SDS011;1899;49.966;7.106;2023-04-25T05:08:34;17.63;;;13.47;;
3767;SDS011;1899;49.966;7.106;2023-04-25T05:10:59;19.50;;;14.23;;
3767;SDS011;1899;49.966;7.106;2023-04-25T05:13:24;26.27;;;15.50;;
3767;SDS011;1899;49.966;7.106;2023-04-25T05:15:50;22.27;;;14.73;;
3767;SDS011;1899;49.966;7.106;2023-04-25T05:18:15;17.43;;;14.10;;
3767;SDS011;1899;49.966;7.106;2023-04-25T05:20:40;18.77;;;14.00;;
3767;SDS011;1899;49.966;7.106;2023-04-25T05:23:05;19.63;;;14.47;;
3767;SDS011;1899;49.966;7.106;2023-04-25T05:25:31;23.43;;;15.43;;
3767;SDS011;1899;49.966;7.106;2023-04-25T05:27:56;21.13;;;13.80;;
3767;SDS011;1899;49.966;7.106;2023-04-25T05:30:23;17.60;;;11.97;;
3767;SDS011;1899;49.966;7.106;2023-04-25T05:32:48;17.77;;;12.90;;
3767;SDS011;1899;49.966;7.106;2023-04-25T05:35:13;17.23;;;12.47;;
3767;SDS011;1899;49.966;7.106;2023-04-25T05:37:39;14.80;;;11.77;;
3767;SDS011;1899;49.966;7.106;2023-04-25T05:40:04;15.63;;;12.50;;
3767;SDS011;1899;49.966;7.106;2023-04-25T05:42:31;18.90;;;12.87;;
3767;SDS011;1899;49.966;7.106;2023-04-25T05:44:57;15.33;;;11.87;;
3767;SDS011;1899;49.966;7.106;2023-04-25T05:47:25;17.33;;;12.57;;
3767;SDS011;1899;49.966;7.106;2023-04-25T05:49:50;15.00;;;11.57;;
3767;SDS011;1899;49.966;7.106;2023-04-25T05:52:16;16.67;;;12.13;;
3767;SDS011;1899;49.966;7.106;2023-04-25T05:54:41;14.67;;;11.20;;
3767;SDS011;1899;49.966;7.106;2023-04-25T05:57:06;17.30;;;10.43;;
3767;SDS011;1899;49.966;7.106;2023-04-25T05:59:31;17.40;;;9.80;;
3767;SDS011;1899;49.966;7.106;2023-04-25T06:01:56;18.10;;;9.73;;
3767;SDS011;1899;49.966;7.106;2023-04-25T06:04:22;15.27;;;9.87;;
3767;SDS011;1899;49.966;7.106;2023-04-25T06:06:47;12.10;;;9.63;;
3767;SDS011;1899;49.966;7.106;2023-04-25T06:09:12;13.13;;;10.20;;
3767;SDS011;1899;49.966;7.106;2023-04-25T06:11:37;17.43;;;11.43;;
3767;SDS011;1899;49.966;7.106;2023-04-25T06:14:03;13.10;;;9.20;;
3767;SDS011;1899;49.966;7.106;2023-04-25T06:16:28;13.83;;;9.37;;
3767;SDS011;1899;49.966;7.106;2023-04-25T06:18:53;16.53;;;10.57;;
3767;SDS011;1899;49.966;7.106;2023-04-25T06:21:19;16.90;;;10.60;;
3767;SDS011;1899;49.966;7.106;2023-04-25T06:23:44;19.07;;;9.70;;
3767;SDS011;1899;49.966;7.106;2023-04-25T06:26:12;11.93;;;9.03;;
3767;SDS011;1899;49.966;7.106;2023-04-25T06:28:37;17.73;;;8.43;;
3767;SDS011;1899;49.966;7.106;2023-04-25T06:31:03;11.10;;;7.83;;
3767;SDS011;1899;49.966;7.106;2023-04-25T06:33:28;15.07;;;9.00;;
3767;SDS011;1899;49.966;7.106;2023-04-25T06:35:53;22.93;;;9.47;;
3767;SDS011;1899;49.966;7.106;2023-04-25T06:38:19;10.93;;;7.60;;
3767;SDS011;1899;49.966;7.106;2023-04-25T06:40:44;12.67;;;7.90;;
3767;SDS011;1899;49.966;7.106;2023-04-25T06:43:09;12.67;;;8.97;;
3767;SDS011;1899;49.966;7.106;2023-04-25T06:45:35;11.53;;;8.93;;
3767;SDS011;1899;49.966;7.106;2023-04-25T06:48:00;15.57;;;9.57;;
3767;SDS011;1899;49.966;7.106;2023-04-25T06:50:25;18.93;;;8.37;;
3767;SDS011;1899;49.966;7.106;2023-04-25T06:52:51;12.67;;;8.87;;
3767;SDS011;1899;49.966;7.106;2023-04-25T06:55:16;12.03;;;8.47;;
3767;SDS011;1899;49.966;7.106;2023-04-25T06:57:41;16.10;;;9.53;;
3767;SDS011;1899;49.966;7.106;2023-04-25T07:00:06;12.30;;;8.90;;
3767;SDS011;1899;49.966;7.106;2023-04-25T07:02:34;13.03;;;8.70;;
3767;SDS011;1899;49.966;7.106;2023-04-25T07:04:59;11.83;;;7.10;;
3767;SDS011;1899;49.966;7.106;2023-04-25T07:07:25;12.60;;;7.53;;
3767;SDS011;1899;49.966;7.106;2023-04-25T07:09:50;15.00;;;7.77;;
3767;SDS011;1899;49.966;7.106;2023-04-25T07:12:15;11.33;;;7.77;;
3767;SDS011;1899;49.966;7.106;2023-04-25T07:14:40;18.63;;;9.37;;
3767;SDS011;1899;49.966;7.106;2023-04-25T07:17:06;9.83;;;7.30;;
3767;SDS011;1899;49.966;7.106;2023-04-25T07:19:32;12.13;;;7.50;;
3767;SDS011;1899;49.966;7.106;2023-04-25T07:21:58;13.67;;;7.07;;
3767;SDS011;1899;49.966;7.106;2023-04-25T07:24:23;8.60;;;6.40;;
3767;SDS011;1899;49.966;7.106;2023-04-25T07:26:48;11.20;;;6.33;;
3767;SDS011;1899;49.966;7.106;2023-04-25T07:29:13;12.57;;;6.00;;
3767;SDS011;1899;49.966;7.106;2023-04-25T07:31:39;10.53;;;6.03;;
3767;SDS011;1899;49.966;7.106;2023-04-25T07:34:04;6.00;;;4.73;;
3767;SDS011;1899;49.966;7.106;2023-04-25T07:36:30;12.53;;;4.70;;
3767;SDS011;1899;49.966;7.106;2023-04-25T07:38:55;9.13;;;4.40;;
3767;SDS011;1899;49.966;7.106;2023-04-25T07:41:21;9.20;;;4.13;;
3767;SDS011;1899;49.966;7.106;2023-04-25T07:43:46;7.20;;;4.47;;
3767;SDS011;1899;49.966;7.106;2023-04-25T07:46:11;9.00;;;4.00;;
3767;SDS011;1899;49.966;7.106;2023-04-25T07:48:36;10.03;;;5.03;;
3767;SDS011;1899;49.966;7.106;2023-04-25T07:51:02;7.13;;;4.43;;
3767;SDS011;1899;49.966;7.106;2023-04-25T07:53:29;9.63;;;5.33;;
3767;SDS011;1899;49.966;7.106;2023-04-25T07:55:54;9.70;;;5.10;;
3767;SDS011;1899;49.966;7.106;2023-04-25T07:58:20;6.83;;;4.70;;
3767;SDS011;1899;49.966;7.106;2023-04-25T08:00:47;6.30;;;4.30;;
3767;SDS011;1899;49.966;7.106;2023-04-25T08:03:12;6.90;;;4.97;;
3767;SDS011;1899;49.966;7.106;2023-04-25T08:05:37;7.00;;;4.23;;
3767;SDS011;1899;49.966;7.106;2023-04-25T08:08:03;9.40;;;5.63;;
3767;SDS011;1899;49.966;7.106;2023-04-25T08:10:28;7.80;;;5.13;;
3767;SDS011;1899;49.966;7.106;2023-04-25T08:12:53;7.10;;;3.67;;
3767;SDS011;1899;49.966;7.106;2023-04-25T08:15:18;7.17;;;4.17;;
3767;SDS011;1899;49.966;7.106;2023-04-25T08:17:44;4.87;;;4.10;;
3767;SDS011;1899;49.966;7.106;2023-04-25T08:20:09;7.23;;;4.23;;
3767;SDS011;1899;49.966;7.106;2023-04-25T08:22:35;7.10;;;4.30;;
3767;SDS011;1899;49.966;7.106;2023-04-25T08:25:01;6.17;;;4.40;;
3767;SDS011;1899;49.966;7.106;2023-04-25T08:27:26;6.80;;;4.30;;
3767;SDS011;1899;49.966;7.106;2023-04-25T08:29:51;6.87;;;4.20;;
3767;SDS011;1899;49.966;7.106;2023-04-25T08:32:16;7.50;;;4.03;;
3767;SDS011;1899;49.966;7.106;2023-04-25T08:34:42;10.30;;;4.63;;
3767;SDS011;1899;49.966;7.106;2023-04-25T08:37:08;7.20;;;4.00;;
3767;SDS011;1899;49.966;7.106;2023-04-25T08:39:35;7.40;;;4.70;;
3767;SDS011;1899;49.966;7.106;2023-04-25T08:42:00;5.50;;;3.50;;
3767;SDS011;1899;49.966;7.106;2023-04-25T08:44:28;3.80;;;3.40;;
3767;SDS011;1899;49.966;7.106;2023-04-25T08:46:55;6.43;;;4.80;;
3767;SDS011;1899;49.966;7.106;2023-04-25T08:49:20;8.03;;;4.23;;
3767;SDS011;1899;49.966;7.106;2023-04-25T08:51:46;5.30;;;3.77;;
3767;SDS011;1899;49.966;7.106;2023-04-25T08:54:12;6.60;;;3.90;;
3767;SDS011;1899;49.966;7.106;2023-04-25T08:56:41;3.97;;;3.00;;
3767;SDS011;1899;49.966;7.106;2023-04-25T08:59:08;11.90;;;3.77;;
3767;SDS011;1899;49.966;7.106;2023-04-25T09:01:34;7.47;;;3.70;;
3767;SDS011;1899;49.966;7.106;2023-04-25T09:04:00;4.60;;;3.10;;
3767;SDS011;1899;49.966;7.106;2023-04-25T09:06:26;5.80;;;3.13;;
3767;SDS011;1899;49.966;7.106;2023-04-25T09:08:52;5.87;;;3.83;;
3767;SDS011;1899;49.966;7.106;2023-04-25T09:11:18;5.10;;;3.60;;
3767;SDS011;1899;49.966;7.106;2023-04-25T09:13:43;5.33;;;4.03;;
3767;SDS011;1899;49.966;7.106;2023-04-25T09:16:08;7.83;;;3.63;;
3767;SDS011;1899;49.966;7.106;2023-04-25T09:18:34;5.03;;;3.47;;
3767;SDS011;1899;49.966;7.106;2023-04-25T09:21:11;5.60;;;3.93;;
3767;SDS011;1899;49.966;7.106;2023-04-25T09:23:46;8.47;;;5.57;;
3767;SDS011;1899;49.966;7.106;2023-04-25T09:26:15;5.93;;;5.00;;
3767;SDS011;1899;49.966;7.106;2023-04-25T09:28:42;8.20;;;5.63;;
3767;SDS011;1899;49.966;7.106;2023-04-25T09:31:09;7.10;;;4.80;;
3767;SDS011;1899;49.966;7.106;2023-04-25T09:33:34;9.20;;;4.53;;
3767;SDS011;1899;49.966;7.106;2023-04-25T09:36:07;6.33;;;4.13;;
3767;SDS011;1899;49.966;7.106;2023-04-25T09:38:42;5.17;;;4.30;;
3767;SDS011;1899;49.966;7.106;2023-04-25T09:41:09;7.77;;;4.10;;
3767;SDS011;1899;49.966;7.106;2023-04-25T09:43:35;7.23;;;3.90;;
3767;SDS011;1899;49.966;7.106;2023-04-25T09:46:00;8.30;;;3.87;;
3767;SDS011;1899;49.966;7.106;2023-04-25T09:48:26;10.03;;;5.70;;
3767;SDS011;1899;49.966;7.106;2023-04-25T09:53:30;11.00;;;3.93;;
3767;SDS011;1899;49.966;7.106;2023-04-25T09:55:57;8.20;;;4.07;;
3767;SDS011;1899;49.966;7.106;2023-04-25T09:58:24;6.80;;;4.47;;
3767;SDS011;1899;49.966;7.106;2023-04-25T10:00:49;10.10;;;4.23;;
3767;SDS011;1899;49.966;7.106;2023-04-25T10:03:15;9.53;;;4.80;;
3767;SDS011;1899;49.966;7.106;2023-04-25T10:05:42;3.23;;;2.83;;
3767;SDS011;1899;49.966;7.106;2023-04-25T10:08:08;5.23;;;3.53;;
3767;SDS011;1899;49.966;7.106;2023-04-25T10:10:34;7.50;;;4.07;;
3767;SDS011;1899;49.966;7.106;2023-04-25T10:13:02;7.53;;;4.30;;
3767;SDS011;1899;49.966;7.106;2023-04-25T10:15:28;4.00;;;3.60;;
3767;SDS011;1899;49.966;7.106;2023-04-25T10:17:53;7.03;;;3.60;;
3767;SDS011;1899;49.966;7.106;2023-04-25T10:20:18;6.47;;;3.70;;
3767;SDS011;1899;49.966;7.106;2023-04-25T10:22:44;7.47;;;3.40;;
3767;SDS011;1899;49.966;7.106;2023-04-25T10:25:10;5.93;;;3.10;;
3767;SDS011;1899;49.966;7.106;2023-04-25T10:27:36;6.10;;;3.20;;
3767;SDS011;1899;49.966;7.106;2023-04-25T10:30:14;6.77;;;3.33;;
3767;SDS011;1899;49.966;7.106;2023-04-25T10:32:41;6.27;;;3.73;;
3767;SDS011;1899;49.966;7.106;2023-04-25T10:35:13;6.50;;;3.43;;
3767;SDS011;1899;49.966;7.106;2023-04-25T10:37:52;6.50;;;3.53;;
3767;SDS011;1899;49.966;7.106;2023-04-25T10:40:21;6.80;;;3.60;;
3767;SDS011;1899;49.966;7.106;2023-04-25T10:42:46;6.60;;;3.77;;
3767;SDS011;1899;49.966;7.106;2023-04-25T10:45:12;5.57;;;3.20;;
3767;SDS011;1899;49.966;7.106;2023-04-25T10:47:43;8.40;;;4.00;;
3767;SDS011;1899;49.966;7.106;2023-04-25T10:50:09;7.47;;;4.23;;
3767;SDS011;1899;49.966;7.106;2023-04-25T10:52:34;10.73;;;4.17;;
3767;SDS011;1899;49.966;7.106;2023-04-25T10:55:00;8.27;;;3.80;;
3767;SDS011;1899;49.966;7.106;2023-04-25T10:59:57;6.43;;;3.20;;
3767;SDS011;1899;49.966;7.106;2023-04-25T11:02:23;5.93;;;3.33;;
3767;SDS011;1899;49.966;7.106;2023-04-25T11:04:51;9.20;;;4.27;;
3767;SDS011;1899;49.966;7.106;2023-04-25T11:09:49;5.73;;;2.97;;
3767;SDS011;1899;49.966;7.106;2023-04-25T11:12:15;9.70;;;4.63;;
3767;SDS011;1899;49.966;7.106;2023-04-25T11:14:41;7.10;;;3.90;;
3767;SDS011;1899;49.966;7.106;2023-04-25T11:17:06;5.43;;;3.53;;
3767;SDS011;1899;49.966;7.106;2023-04-25T11:19:32;7.13;;;3.90;;
3767;SDS011;1899;49.966;7.106;2023-04-25T11:21:58;7.27;;;3.40;;
3767;SDS011;1899;49.966;7.106;2023-04-25T11:24:30;8.83;;;3.20;;
3767;SDS011;1899;49.966;7.106;2023-04-25T11:26:57;8.67;;;3.63;;
3767;SDS011;1899;49.966;7.106;2023-04-25T11:29:23;8.30;;;3.63;;
3767;SDS011;1899;49.966;7.106;2023-04-25T11:31:48;7.37;;;3.23;;
3767;SDS011;1899;49.966;7.106;2023-04-25T11:34:17;9.10;;;3.30;;
3767;SDS011;1899;49.966;7.106;2023-04-25T11:36:43;9.13;;;4.03;;
3767;SDS011;1899;49.966;7.106;2023-04-25T11:39:09;8.83;;;3.50;;
3767;SDS011;1899;49.966;7.106;2023-04-25T11:41:36;14.57;;;4.03;;
3767;SDS011;1899;49.966;7.106;2023-04-25T11:44:02;9.80;;;3.67;;
3767;SDS011;1899;49.966;7.106;2023-04-25T11:46:27;8.20;;;3.63;;
3767;SDS011;1899;49.966;7.106;2023-04-25T11:48:52;6.37;;;3.73;;
3767;SDS011;1899;49.966;7.106;2023-04-25T11:51:20;6.17;;;3.00;;
3767;SDS011;1899;49.966;7.106;2023-04-25T11:53:46;7.23;;;3.37;;
3767;SDS011;1899;49.966;7.106;2023-04-25T11:56:11;7.53;;;2.97;;
3767;SDS011;1899;49.966;7.106;2023-04-25T12:01:30;7.27;;;3.53;;
3767;SDS011;1899;49.966;7.106;2023-04-25T12:03:56;7.83;;;2.90;;
3767;SDS011;1899;49.966;7.106;2023-04-25T12:06:25;5.60;;;2.37;;
3767;SDS011;1899;49.966;7.106;2023-04-25T12:11:26;6.03;;;2.63;;
3767;SDS011;1899;49.966;7.106;2023-04-25T12:13:51;9.50;;;2.60;;
3767;SDS011;1899;49.966;7.106;2023-04-25T12:16:17;5.10;;;2.50;;
3767;SDS011;1899;49.966;7.106;2023-04-25T12:18:42;4.80;;;2.53;;
3767;SDS011;1899;49.966;7.106;2023-04-25T12:21:07;4.80;;;2.23;;
3767;SDS011;1899;49.966;7.106;2023-04-25T12:23:34;6.47;;;2.50;;
3767;SDS011;1899;49.966;7.106;2023-04-25T12:26:03;4.93;;;2.67;;
3767;SDS011;1899;49.966;7.106;2023-04-25T12:28:28;6.63;;;2.17;;
3767;SDS011;1899;49.966;7.106;2023-04-25T12:31:04;4.03;;;2.13;;
3767;SDS011;1899;49.966;7.106;2023-04-25T12:33:31;7.60;;;2.63;;
3767;SDS011;1899;49.966;7.106;2023-04-25T12:35:56;4.67;;;2.40;;
3767;SDS011;1899;49.966;7.106;2023-04-25T12:38:23;5.33;;;2.47;;
3767;SDS011;1899;49.966;7.106;2023-04-25T12:40:48;4.43;;;2.27;;
3767;SDS011;1899;49.966;7.106;2023-04-25T12:43:14;7.50;;;2.77;;
3767;SDS011;1899;49.966;7.106;2023-04-25T12:45:39;5.07;;;2.90;;
3767;SDS011;1899;49.966;7.106;2023-04-25T12:48:05;6.03;;;2.70;;
3767;SDS011;1899;49.966;7.106;2023-04-25T12:50:30;6.67;;;2.83;;
3767;SDS011;1899;49.966;7.106;2023-04-25T12:52:56;4.33;;;2.27;;
3767;SDS011;1899;49.966;7.106;2023-04-25T12:55:21;4.77;;;2.37;;
3767;SDS011;1899;49.966;7.106;2023-04-25T12:57:46;3.40;;;1.80;;
3767;SDS011;1899;49.966;7.106;2023-04-25T13:00:12;6.03;;;2.80;;
3767;SDS011;1899;49.966;7.106;2023-04-25T13:02:39;3.53;;;2.17;;
3767;SDS011;1899;49.966;7.106;2023-04-25T13:05:05;5.33;;;2.20;;
3767;SDS011;1899;49.966;7.106;2023-04-25T13:07:30;13.33;;;5.40;;
3767;SDS011;1899;49.966;7.106;2023-04-25T13:09:56;4.30;;;2.17;;
3767;SDS011;1899;49.966;7.106;2023-04-25T13:12:21;2.47;;;1.90;;
3767;SDS011;1899;49.966;7.106;2023-04-25T13:14:46;3.50;;;1.93;;
3767;SDS011;1899;49.966;7.106;2023-04-25T13:17:11;3.90;;;2.60;;
3767;SDS011;1899;49.966;7.106;2023-04-25T13:19:37;4.67;;;2.10;;
3767;SDS011;1899;49.966;7.106;2023-04-25T13:22:03;3.83;;;2.30;;
3767;SDS011;1899;49.966;7.106;2023-04-25T13:24:29;7.83;;;2.77;;
3767;SDS011;1899;49.966;7.106;2023-04-25T13:26:54;4.13;;;2.50;;
3767;SDS011;1899;49.966;7.106;2023-04-25T13:29:20;6.27;;;2.27;;
3767;SDS011;1899;49.966;7.106;2023-04-25T13:31:45;4.80;;;3.30;;
3767;SDS011;1899;49.966;7.106;2023-04-25T13:34:10;3.93;;;2.07;;
3767;SDS011;1899;49.966;7.106;2023-04-25T13:36:37;6.00;;;2.63;;
3767;SDS011;1899;49.966;7.106;2023-04-25T13:39:03;3.53;;;2.20;;
3767;SDS011;1899;49.966;7.106;2023-04-25T13:41:29;6.87;;;2.00;;
3767;SDS011;1899;49.966;7.106;2023-04-25T13:43:54;5.40;;;2.67;;
3767;SDS011;1899;49.966;7.106;2023-04-25T13:46:20;5.70;;;2.60;;
3767;SDS011;1899;49.966;7.106;2023-04-25T13:48:45;4.50;;;2.23;;
3767;SDS011;1899;49.966;7.106;2023-04-25T13:51:14;5.33;;;2.37;;
3767;SDS011;1899;49.966;7.106;2023-04-25T13:53:39;3.43;;;2.20;;
3767;SDS011;1899;49.966;7.106;2023-04-25T13:56:05;2.83;;;2.07;;
3767;SDS011;1899;49.966;7.106;2023-04-25T13:58:30;2.40;;;1.80;;
3767;SDS011;1899;49.966;7.106;2023-04-25T14:00:57;6.67;;;2.37;;
3767;SDS011;1899;49.966;7.106;2023-04-25T14:03:22;5.50;;;2.80;;
3767;SDS011;1899;49.966;7.106;2023-04-25T14:05:47;7.73;;;2.67;;
3767;SDS011;1899;49.966;7.106;2023-04-25T14:08:13;6.97;;;2.57;;
3767;SDS011;1899;49.966;7.106;2023-04-25T14:10:38;4.43;;;2.40;;
3767;SDS011;1899;49.966;7.106;2023-04-25T14:13:04;6.27;;;3.57;;
3767;SDS011;1899;49.966;7.106;2023-04-25T14:15:30;6.33;;;2.60;;
3767;SDS011;1899;49.966;7.106;2023-04-25T14:17:56;6.40;;;2.17;;
3767;SDS011;1899;49.966;7.106;2023-04-25T14:20:21;4.53;;;2.80;;
3767;SDS011;1899;49.966;7.106;2023-04-25T14:22:48;3.70;;;2.40;;
3767;SDS011;1899;49.966;7.106;2023-04-25T14:25:14;5.57;;;1.73;;
3767;SDS011;1899;49.966;7.106;2023-04-25T14:27:39;4.60;;;1.87;;
3767;SDS011;1899;49.966;7.106;2023-04-25T14:30:04;6.40;;;2.30;;
3767;SDS011;1899;49.966;7.106;2023-04-25T14:32:30;3.00;;;2.00;;
3767;SDS011;1899;49.966;7.106;2023-04-25T14:34:57;5.40;;;2.73;;
3767;SDS011;1899;49.966;7.106;2023-04-25T14:37:22;6.63;;;2.07;;
3767;SDS011;1899;49.966;7.106;2023-04-25T14:39:47;3.80;;;2.20;;
3767;SDS011;1899;49.966;7.106;2023-04-25T14:42:12;6.13;;;2.13;;
3767;SDS011;1899;49.966;7.106;2023-04-25T14:44:37;3.27;;;2.43;;
3767;SDS011;1899;49.966;7.106;2023-04-25T14:47:03;8.30;;;2.30;;
3767;SDS011;1899;49.966;7.106;2023-04-25T14:49:28;5.77;;;2.93;;
3767;SDS011;1899;49.966;7.106;2023-04-25T14:51:53;7.63;;;2.50;;
3767;SDS011;1899;49.966;7.106;2023-04-25T14:54:19;3.07;;;2.10;;
3767;SDS011;1899;49.966;7.106;2023-04-25T14:56:44;4.13;;;2.90;;
3767;SDS011;1899;49.966;7.106;2023-04-25T14:59:09;3.33;;;2.10;;
3767;SDS011;1899;49.966;7.106;2023-04-25T15:01:34;4.00;;;2.30;;
3767;SDS011;1899;49.966;7.106;2023-04-25T15:04:00;5.70;;;2.43;;
3767;SDS011;1899;49.966;7.106;2023-04-25T15:06:25;5.10;;;2.20;;
3767;SDS011;1899;49.966;7.106;2023-04-25T15:08:52;4.67;;;2.23;;
3767;SDS011;1899;49.966;7.106;2023-04-25T15:11:17;2.80;;;2.20;;
3767;SDS011;1899;49.966;7.106;2023-04-25T15:13:43;3.40;;;2.90;;
3767;SDS011;1899;49.966;7.106;2023-04-25T15:16:08;4.80;;;2.27;;
3767;SDS011;1899;49.966;7.106;2023-04-25T15:18:33;5.87;;;2.57;;
3767;SDS011;1899;49.966;7.106;2023-04-25T15:20:59;6.00;;;2.40;;
3767;SDS011;1899;49.966;7.106;2023-04-25T15:23:24;4.87;;;3.17;;
3767;SDS011;1899;49.966;7.106;2023-04-25T15:25:50;8.00;;;2.87;;
3767;SDS011;1899;49.966;7.106;2023-04-25T15:28:15;4.00;;;2.00;;
3767;SDS011;1899;49.966;7.106;2023-04-25T15:30:40;6.50;;;2.90;;
3767;SDS011;1899;49.966;7.106;2023-04-25T15:33:06;8.40;;;2.70;;
3767;SDS011;1899;49.966;7.106;2023-04-25T15:35:31;6.90;;;3.30;;
3767;SDS011;1899;49.966;7.106;2023-04-25T15:37:56;7.40;;;3.90;;
3767;SDS011;1899;49.966;7.106;2023-04-25T15:40:21;9.40;;;2.70;;
3767;SDS011;1899;49.966;7.106;2023-04-25T15:42:48;5.60;;;2.87;;
3767;SDS011;1899;49.966;7.106;2023-04-25T15:45:16;8.37;;;3.13;;
3767;SDS011;1899;49.966;7.106;2023-04-25T15:47:42;3.90;;;2.60;;
3767;SDS011;1899;49.966;7.106;2023-04-25T15:50:08;4.17;;;2.70;;
3767;SDS011;1899;49.966;7.106;2023-04-25T15:52:34;4.37;;;2.93;;
3767;SDS011;1899;49.966;7.106;2023-04-25T15:54:59;4.70;;;2.93;;
3767;SDS011;1899;49.966;7.106;2023-04-25T15:57:25;4.00;;;2.53;;
3767;SDS011;1899;49.966;7.106;2023-04-25T15:59:50;4.73;;;2.83;;
3767;SDS011;1899;49.966;7.106;2023-04-25T16:02:16;6.93;;;2.63;;
3767;SDS011;1899;49.966;7.106;2023-04-25T16:04:41;6.90;;;2.80;;
3767;SDS011;1899;49.966;7.106;2023-04-25T16:07:07;6.60;;;2.83;;
3767;SDS011;1899;49.966;7.106;2023-04-25T16:09:33;4.57;;;2.40;;
3767;SDS011;1899;49.966;7.106;2023-04-25T16:11:58;4.80;;;2.50;;
3767;SDS011;1899;49.966;7.106;2023-04-25T16:14:24;8.67;;;2.60;;
3767;SDS011;1899;49.966;7.106;2023-04-25T16:16:49;3.23;;;2.63;;
3767;SDS011;1899;49.966;7.106;2023-04-25T16:19:14;5.70;;;2.50;;
3767;SDS011;1899;49.966;7.106;2023-04-25T16:21:40;8.33;;;3.93;;
3767;SDS011;1899;49.966;7.106;2023-04-25T16:24:06;3.40;;;2.73;;
3767;SDS011;1899;49.966;7.106;2023-04-25T16:26:32;3.23;;;2.10;;
3767;SDS011;1899;49.966;7.106;2023-04-25T16:28:57;5.10;;;2.43;;
3767;SDS011;1899;49.966;7.106;2023-04-25T16:31:22;9.97;;;2.30;;
3767;SDS011;1899;49.966;7.106;2023-04-25T16:33:47;2.90;;;2.47;;
3767;SDS011;1899;49.966;7.106;2023-04-25T16:36:13;7.30;;;2.60;;
3767;SDS011;1899;49.966;7.106;2023-04-25T16:38:38;4.33;;;2.27;;
3767;SDS011;1899;49.966;7.106;2023-04-25T16:41:04;8.70;;;2.50;;
3767;SDS011;1899;49.966;7.106;2023-04-25T16:43:29;3.87;;;2.40;;
3767;SDS011;1899;49.966;7.106;2023-04-25T16:45:55;5.47;;;2.40;;
3767;SDS011;1899;49.966;7.106;2023-04-25T16:48:21;3.40;;;2.60;;
3767;SDS011;1899;49.966;7.106;2023-04-25T16:50:48;2.43;;;2.17;;
3767;SDS011;1899;49.966;7.106;2023-04-25T16:53:13;4.27;;;2.20;;
3767;SDS011;1899;49.966;7.106;2023-04-25T16:55:38;3.37;;;1.80;;
3767;SDS011;1899;49.966;7.106;2023-04-25T16:58:04;4.83;;;2.50;;
3767;SDS011;1899;49.966;7.106;2023-04-25T17:00:30;5.07;;;2.87;;
3767;SDS011;1899;49.966;7.106;2023-04-25T17:02:56;9.57;;;4.13;;
3767;SDS011;1899;49.966;7.106;2023-04-25T17:05:21;7.63;;;2.57;;
3767;SDS011;1899;49.966;7.106;2023-04-25T17:07:46;5.87;;;2.33;;
3767;SDS011;1899;49.966;7.106;2023-04-25T17:10:12;5.27;;;2.00;;
3767;SDS011;1899;49.966;7.106;2023-04-25T17:12:37;5.33;;;2.27;;
3767;SDS011;1899;49.966;7.106;2023-04-25T17:15:02;4.67;;;2.00;;
3767;SDS011;1899;49.966;7.106;2023-04-25T17:17:28;4.93;;;2.57;;
3767;SDS011;1899;49.966;7.106;2023-04-25T17:19:53;6.20;;;2.83;;
3767;SDS011;1899;49.966;7.106;2023-04-25T17:22:18;6.43;;;2.50;;
3767;SDS011;1899;49.966;7.106;2023-04-25T17:24:43;6.63;;;2.73;;
3767;SDS011;1899;49.966;7.106;2023-04-25T17:27:09;3.67;;;2.50;;
3767;SDS011;1899;49.966;7.106;2023-04-25T17:29:34;4.97;;;2.50;;
3767;SDS011;1899;49.966;7.106;2023-04-25T17:32:00;5.23;;;2.60;;
3767;SDS011;1899;49.966;7.106;2023-04-25T17:34:25;4.77;;;2.13;;
3767;SDS011;1899;49.966;7.106;2023-04-25T17:36:50;4.50;;;1.97;;
3767;SDS011;1899;49.966;7.106;2023-04-25T17:39:16;3.30;;;2.20;;
3767;SDS011;1899;49.966;7.106;2023-04-25T17:41:41;2.57;;;1.93;;
3767;SDS011;1899;49.966;7.106;2023-04-25T17:44:07;8.57;;;2.43;;
3767;SDS011;1899;49.966;7.106;2023-04-25T17:46:32;2.77;;;2.00;;
3767;SDS011;1899;49.966;7.106;2023-04-25T17:48:57;5.50;;;2.47;;
3767;SDS011;1899;49.966;7.106;2023-04-25T17:51:23;4.73;;;2.27;;
3767;SDS011;1899;49.966;7.106;2023-04-25T17:53:48;3.63;;;2.17;;
3767;SDS011;1899;49.966;7.106;2023-04-25T17:56:14;5.00;;;2.10;;
3767;SDS011;1899;49.966;7.106;2023-04-25T17:58:40;2.53;;;1.97;;
3767;SDS011;1899;49.966;7.106;2023-04-25T18:01:05;3.37;;;2.33;;
3767;SDS011;1899;49.966;7.106;2023-04-25T18:03:30;5.87;;;2.50;;
3767;SDS011;1899;49.966;7.106;2023-04-25T18:05:56;5.20;;;2.50;;
3767;SDS011;1899;49.966;7.106;2023-04-25T18:08:21;3.60;;;2.50;;
3767;SDS011;1899;49.966;7.106;2023-04-25T18:10:46;3.53;;;2.30;;
3767;SDS011;1899;49.966;7.106;2023-04-25T18:13:13;7.67;;;2.67;;
3767;SDS011;1899;49.966;7.106;2023-04-25T18:15:38;2.43;;;2.20;;
3767;SDS011;1899;49.966;7.106;2023-04-25T18:18:04;8.97;;;3.47;;
3767;SDS011;1899;49.966;7.106;2023-04-25T18:20:38;4.50;;;2.73;;
3767;SDS011;1899;49.966;7.106;2023-04-25T18:23:04;4.13;;;2.40;;
3767;SDS011;1899;49.966;7.106;2023-04-25T18:25:29;4.83;;;2.10;;
3767;SDS011;1899;49.966;7.106;2023-04-25T18:27:54;3.33;;;2.20;;
3767;SDS011;1899;49.966;7.106;2023-04-25T18:30:20;3.93;;;2.30;;
3767;SDS011;1899;49.966;7.106;2023-04-25T18:32:45;5.70;;;2.60;;
3767;SDS011;1899;49.966;7.106;2023-04-25T18:35:11;3.93;;;3.47;;
3767;SDS011;1899;49.966;7.106;2023-04-25T18:37:37;4.63;;;3.23;;
3767;SDS011;1899;49.966;7.106;2023-04-25T18:40:02;6.80;;;2.73;;
3767;SDS011;1899;49.966;7.106;2023-04-25T18:42:30;8.57;;;3.00;;
3767;SDS011;1899;49.966;7.106;2023-04-25T18:44:56;3.87;;;2.30;;
3767;SDS011;1899;49.966;7.106;2023-04-25T18:47:21;3.73;;;2.20;;
3767;SDS011;1899;49.966;7.106;2023-04-25T18:49:46;5.37;;;2.57;;
3767;SDS011;1899;49.966;7.106;2023-04-25T18:52:12;4.07;;;3.07;;
3767;SDS011;1899;49.966;7.106;2023-04-25T18:54:39;4.30;;;2.37;;
3767;SDS011;1899;49.966;7.106;2023-04-25T18:57:05;3.50;;;2.30;;
3767;SDS011;1899;49.966;7.106;2023-04-25T18:59:33;10.23;;;2.30;;
3767;SDS011;1899;49.966;7.106;2023-04-25T19:01:58;5.33;;;2.80;;
3767;SDS011;1899;49.966;7.106;2023-04-25T19:04:28;5.60;;;2.67;;
3767;SDS011;1899;49.966;7.106;2023-04-25T19:06:53;4.30;;;3.37;;
3767;SDS011;1899;49.966;7.106;2023-04-25T19:09:18;7.37;;;2.53;;
3767;SDS011;1899;49.966;7.106;2023-04-25T19:11:44;4.80;;;2.50;;
3767;SDS011;1899;49.966;7.106;2023-04-25T19:14:09;4.40;;;2.97;;
3767;SDS011;1899;49.966;7.106;2023-04-25T19:16:35;5.47;;;2.83;;